sensor_id;sensor_type;location;lat;lon;timestamp;P1;durP1;ratioP1;P2;durP2;ratioP2
3627;SDS011;1830;49.000;12.074;2023-05-02T00:00:16;25.27;;;22.57;;
3627;SDS011;1830;49.000;12.074;2023-05-02T00:02:43;29.20;;;23.77;;
3627;SDS011;1830;49.000;12.074;2023-05-02T00:05:10;30.67;;;21.90;;
3627;SDS011;1830;49.000;12.074;2023-05-02T00:07:38;26.20;;;22.10;;
3627;SDS011;1830;49.000;12.074;2023-05-02T00:10:05;26.50;;;22.30;;
3627;SDS011;1830;49.000;12.074;2023-05-02T00:12:32;27.33;;;23.30;;
3627;SDS011;1830;49.000;12.074;2023-05-02T00:15:00;30.20;;;23.97;;
3627;SDS011;1830;49.000;12.074;2023-05-02T00:17:26;25.77;;;23.03;;
3627;SDS011;1830;49.000;12.074;2023-05-02T00:19:53;28.63;;;22.00;;
3627;SDS011;1830;49.000;12.074;2023-05-02T00:22:20;30.83;;;23.70;;
3627;SDS011;1830;49.000;12.074;2023-05-02T00:24:48;26.73;;;22.77;;
3627;SDS011;1830;49.000;12.074;2023-05-02T00:27:15;26.20;;;22.10;;
3627;SDS011;1830;49.000;12.074;2023-05-02T00:29:43;33.90;;;24.50;;
3627;SDS011;1830;49.000;12.074;2023-05-02T00:32:11;26.13;;;21.90;;
3627;SDS011;1830;49.000;12.074;2023-05-02T00:34:39;32.20;;;22.30;;
3627;SDS011;1830;49.000;12.074;2023-05-02T00:37:06;26.33;;;22.77;;
3627;SDS011;1830;49.000;12.074;2023-05-02T00:39:32;26.37;;;22.60;;
3627;SDS011;1830;49.000;12.074;2023-05-02T00:42:01;31.67;;;22.87;;
3627;SDS011;1830;49.000;12.074;2023-05-02T00:44:28;28.53;;;22.30;;
3627;SDS011;1830;49.000;12.074;2023-05-02T00:46:55;26.10;;;21.93;;
3627;SDS011;1830;49.000;12.074;2023-05-02T00:49:23;28.07;;;21.70;;
3627;SDS011;1830;49.000;12.074;2023-05-02T00:51:50;23.00;;;20.50;;
3627;SDS011;1830;49.000;12.074;2023-05-02T00:54:18;25.50;;;21.87;;
3627;SDS011;1830;49.000;12.074;2023-05-02T00:56:45;28.90;;;23.60;;
3627;SDS011;1830;49.000;12.074;2023-05-02T00:59:13;26.10;;;23.30;;
3627;SDS011;1830;49.000;12.074;2023-05-02T01:01:44;26.47;;;23.53;;
3627;SDS011;1830;49.000;12.074;2023-05-02T01:04:21;26.30;;;22.90;;
3627;SDS011;1830;49.000;12.074;2023-05-02T01:07:08;29.47;;;23.13;;
3627;SDS011;1830;49.000;12.074;2023-05-02T01:09:47;35.20;;;24.17;;
3627;SDS011;1830;49.000;12.074;2023-05-02T01:12:26;26.67;;;23.20;;
3627;SDS011;1830;49.000;12.074;2023-05-02T01:14:57;29.27;;;23.80;;
3627;SDS011;1830;49.000;12.074;2023-05-02T01:17:29;27.57;;;23.57;;
3627;SDS011;1830;49.000;12.074;2023-05-02T01:19:58;26.20;;;22.90;;
3627;SDS011;1830;49.000;12.074;2023-05-02T01:22:28;30.03;;;23.43;;
3627;SDS011;1830;49.000;12.074;2023-05-02T01:24:59;26.90;;;22.20;;
3627;SDS011;1830;49.000;12.074;2023-05-02T01:27:35;28.80;;;23.20;;
3627;SDS011;1830;49.000;12.074;2023-05-02T01:30:13;31.57;;;23.07;;
3627;SDS011;1830;49.000;12.074;2023-05-02T01:32:43;29.43;;;23.80;;
3627;SDS011;1830;49.000;12.074;2023-05-02T01:35:13;31.53;;;23.47;;
3627;SDS011;1830;49.000;12.074;2023-05-02T01:37:41;29.07;;;24.37;;
3627;SDS011;1830;49.000;12.074;2023-05-02T01:40:10;27.87;;;23.67;;
3627;SDS011;1830;49.000;12.074;2023-05-02T01:42:39;26.70;;;23.47;;
3627;SDS011;1830;49.000;12.074;2023-05-02T01:45:08;27.77;;;22.97;;
3627;SDS011;1830;49.000;12.074;2023-05-02T01:47:39;27.77;;;23.07;;
3627;SDS011;1830;49.000;12.074;2023-05-02T01:50:09;27.80;;;21.90;;
3627;SDS011;1830;49.000;12.074;2023-05-02T01:52:40;26.93;;;23.00;;
3627;SDS011;1830;49.000;12.074;2023-05-02T01:55:08;28.70;;;21.80;;
3627;SDS011;1830;49.000;12.074;2023-05-02T01:57:39;27.67;;;22.17;;
3627;SDS011;1830;49.000;12.074;2023-05-02T02:00:08;30.67;;;23.00;;
3627;SDS011;1830;49.000;12.074;2023-05-02T02:02:35;26.10;;;21.30;;
3627;SDS011;1830;49.000;12.074;2023-05-02T02:05:06;32.20;;;22.67;;
3627;SDS011;1830;49.000;12.074;2023-05-02T02:07:34;25.20;;;22.30;;
3627;SDS011;1830;49.000;12.074;2023-05-02T02:10:02;37.73;;;25.20;;
3627;SDS011;1830;49.000;12.074;2023-05-02T02:12:30;29.00;;;24.20;;
3627;SDS011;1830;49.000;12.074;2023-05-02T02:15:02;29.60;;;24.27;;
3627;SDS011;1830;49.000;12.074;2023-05-02T02:17:35;28.33;;;24.00;;
3627;SDS011;1830;49.000;12.074;2023-05-02T02:20:07;33.43;;;25.80;;
3627;SDS011;1830;49.000;12.074;2023-05-02T02:22:36;30.87;;;24.13;;
3627;SDS011;1830;49.000;12.074;2023-05-02T02:25:05;36.37;;;23.93;;
3627;SDS011;1830;49.000;12.074;2023-05-02T02:27:35;30.70;;;23.70;;
3627;SDS011;1830;49.000;12.074;2023-05-02T02:30:02;32.93;;;24.60;;
3627;SDS011;1830;49.000;12.074;2023-05-02T02:32:30;32.93;;;25.80;;
3627;SDS011;1830;49.000;12.074;2023-05-02T02:34:56;32.37;;;25.17;;
3627;SDS011;1830;49.000;12.074;2023-05-02T02:37:27;34.80;;;26.13;;
3627;SDS011;1830;49.000;12.074;2023-05-02T02:39:58;35.10;;;25.77;;
3627;SDS011;1830;49.000;12.074;2023-05-02T02:42:31;35.23;;;25.73;;
3627;SDS011;1830;49.000;12.074;2023-05-02T02:45:07;32.87;;;26.63;;
3627;SDS011;1830;49.000;12.074;2023-05-02T02:47:43;31.40;;;24.03;;
3627;SDS011;1830;49.000;12.074;2023-05-02T02:50:16;30.90;;;25.03;;
3627;SDS011;1830;49.000;12.074;2023-05-02T02:52:51;33.73;;;24.90;;
3627;SDS011;1830;49.000;12.074;2023-05-02T02:55:23;32.77;;;25.60;;
3627;SDS011;1830;49.000;12.074;2023-05-02T02:58:03;32.57;;;23.30;;
3627;SDS011;1830;49.000;12.074;2023-05-02T03:00:38;31.07;;;24.50;;
3627;SDS011;1830;49.000;12.074;2023-05-02T03:03:06;26.60;;;23.20;;
3627;SDS011;1830;49.000;12.074;2023-05-02T03:05:33;32.20;;;25.90;;
3627;SDS011;1830;49.000;12.074;2023-05-02T03:08:02;28.63;;;25.20;;
3627;SDS011;1830;49.000;12.074;2023-05-02T03:10:29;32.50;;;23.93;;
3627;SDS011;1830;49.000;12.074;2023-05-02T03:12:57;34.27;;;24.53;;
3627;SDS011;1830;49.000;12.074;2023-05-02T03:15:29;27.97;;;23.73;;
3627;SDS011;1830;49.000;12.074;2023-05-02T03:18:13;35.67;;;23.07;;
3627;SDS011;1830;49.000;12.074;2023-05-02T03:20:40;35.77;;;24.27;;
3627;SDS011;1830;49.000;12.074;2023-05-02T03:23:08;32.03;;;23.27;;
3627;SDS011;1830;49.000;12.074;2023-05-02T03:25:35;26.80;;;23.23;;
3627;SDS011;1830;49.000;12.074;2023-05-02T03:28:03;29.20;;;23.87;;
3627;SDS011;1830;49.000;12.074;2023-05-02T03:30:30;33.40;;;24.73;;
3627;SDS011;1830;49.000;12.074;2023-05-02T03:32:56;28.50;;;24.67;;
3627;SDS011;1830;49.000;12.074;2023-05-02T03:35:24;32.40;;;25.70;;
3627;SDS011;1830;49.000;12.074;2023-05-02T03:37:53;30.07;;;24.00;;
3627;SDS011;1830;49.000;12.074;2023-05-02T03:40:21;29.63;;;24.50;;
3627;SDS011;1830;49.000;12.074;2023-05-02T03:42:48;30.67;;;25.20;;
3627;SDS011;1830;49.000;12.074;2023-05-02T03:45:15;36.30;;;26.80;;
3627;SDS011;1830;49.000;12.074;2023-05-02T03:47:42;31.57;;;25.70;;
3627;SDS011;1830;49.000;12.074;2023-05-02T03:50:09;29.37;;;24.10;;
3627;SDS011;1830;49.000;12.074;2023-05-02T03:52:36;32.63;;;25.50;;
3627;SDS011;1830;49.000;12.074;2023-05-02T03:55:03;32.87;;;25.73;;
3627;SDS011;1830;49.000;12.074;2023-05-02T03:57:33;32.87;;;25.90;;
3627;SDS011;1830;49.000;12.074;2023-05-02T04:00:00;30.40;;;24.67;;
3627;SDS011;1830;49.000;12.074;2023-05-02T04:02:27;32.27;;;26.07;;
3627;SDS011;1830;49.000;12.074;2023-05-02T04:04:55;34.60;;;27.37;;
3627;SDS011;1830;49.000;12.074;2023-05-02T04:07:22;32.23;;;25.90;;
3627;SDS011;1830;49.000;12.074;2023-05-02T04:09:49;30.80;;;25.23;;
3627;SDS011;1830;49.000;12.074;2023-05-02T04:12:16;37.57;;;28.00;;
3627;SDS011;1830;49.000;12.074;2023-05-02T04:14:45;34.67;;;27.23;;
3627;SDS011;1830;49.000;12.074;2023-05-02T04:17:12;37.83;;;29.37;;
3627;SDS011;1830;49.000;12.074;2023-05-02T04:19:39;34.27;;;26.10;;
3627;SDS011;1830;49.000;12.074;2023-05-02T04:22:06;38.97;;;29.33;;
3627;SDS011;1830;49.000;12.074;2023-05-02T04:24:33;34.10;;;27.23;;
3627;SDS011;1830;49.000;12.074;2023-05-02T04:26:59;37.93;;;28.67;;
3627;SDS011;1830;49.000;12.074;2023-05-02T04:29:26;44.07;;;30.67;;
3627;SDS011;1830;49.000;12.074;2023-05-02T04:31:54;40.90;;;30.27;;
3627;SDS011;1830;49.000;12.074;2023-05-02T04:34:21;36.97;;;28.17;;
3627;SDS011;1830;49.000;12.074;2023-05-02T04:36:48;46.47;;;32.37;;
3627;SDS011;1830;49.000;12.074;2023-05-02T04:39:15;45.60;;;30.50;;
3627;SDS011;1830;49.000;12.074;2023-05-02T04:41:41;41.60;;;28.80;;
3627;SDS011;1830;49.000;12.074;2023-05-02T04:44:08;40.47;;;31.10;;
3627;SDS011;1830;49.000;12.074;2023-05-02T04:46:35;46.57;;;34.27;;
3627;SDS011;1830;49.000;12.074;2023-05-02T04:49:03;44.67;;;31.73;;
3627;SDS011;1830;49.000;12.074;2023-05-02T04:51:30;45.30;;;33.30;;
3627;SDS011;1830;49.000;12.074;2023-05-02T04:53:57;52.60;;;34.13;;
3627;SDS011;1830;49.000;12.074;2023-05-02T04:56:24;54.70;;;33.23;;
3627;SDS011;1830;49.000;12.074;2023-05-02T04:58:51;57.40;;;35.07;;
3627;SDS011;1830;49.000;12.074;2023-05-02T05:01:17;48.13;;;33.60;;
3627;SDS011;1830;49.000;12.074;2023-05-02T05:03:44;47.93;;;33.23;;
3627;SDS011;1830;49.000;12.074;2023-05-02T05:06:12;60.80;;;31.47;;
3627;SDS011;1830;49.000;12.074;2023-05-02T05:08:39;46.90;;;34.07;;
3627;SDS011;1830;49.000;12.074;2023-05-02T05:11:06;45.67;;;31.77;;
3627;SDS011;1830;49.000;12.074;2023-05-02T05:13:33;45.40;;;32.70;;
3627;SDS011;1830;49.000;12.074;2023-05-02T05:16:00;46.97;;;32.40;;
3627;SDS011;1830;49.000;12.074;2023-05-02T05:18:27;42.80;;;32.70;;
3627;SDS011;1830;49.000;12.074;2023-05-02T05:20:54;43.50;;;32.60;;
3627;SDS011;1830;49.000;12.074;2023-05-02T05:23:22;46.03;;;33.70;;
3627;SDS011;1830;49.000;12.074;2023-05-02T05:25:49;55.83;;;35.13;;
3627;SDS011;1830;49.000;12.074;2023-05-02T05:28:16;48.73;;;33.90;;
3627;SDS011;1830;49.000;12.074;2023-05-02T05:30:43;50.83;;;36.83;;
3627;SDS011;1830;49.000;12.074;2023-05-02T05:33:10;48.97;;;33.93;;
3627;SDS011;1830;49.000;12.074;2023-05-02T05:35:37;52.30;;;34.47;;
3627;SDS011;1830;49.000;12.074;2023-05-02T05:38:04;50.10;;;32.60;;
3627;SDS011;1830;49.000;12.074;2023-05-02T05:40:32;47.77;;;33.20;;
3627;SDS011;1830;49.000;12.074;2023-05-02T05:42:59;53.30;;;34.17;;
3627;SDS011;1830;49.000;12.074;2023-05-02T05:45:25;42.30;;;32.00;;
3627;SDS011;1830;49.000;12.074;2023-05-02T05:47:52;38.23;;;29.20;;
3627;SDS011;1830;49.000;12.074;2023-05-02T05:50:19;50.03;;;31.27;;
3627;SDS011;1830;49.000;12.074;2023-05-02T05:52:46;41.87;;;30.50;;
3627;SDS011;1830;49.000;12.074;2023-05-02T05:55:13;41.40;;;29.07;;
3627;SDS011;1830;49.000;12.074;2023-05-02T05:57:41;37.50;;;28.57;;
3627;SDS011;1830;49.000;12.074;2023-05-02T06:00:08;40.20;;;29.77;;
3627;SDS011;1830;49.000;12.074;2023-05-02T06:02:36;41.47;;;28.53;;
3627;SDS011;1830;49.000;12.074;2023-05-02T06:05:03;39.10;;;28.63;;
3627;SDS011;1830;49.000;12.074;2023-05-02T06:07:30;37.83;;;29.00;;
3627;SDS011;1830;49.000;12.074;2023-05-02T06:09:57;39.40;;;29.13;;
3627;SDS011;1830;49.000;12.074;2023-05-02T06:12:23;34.33;;;27.53;;
3627;SDS011;1830;49.000;12.074;2023-05-02T06:14:52;32.80;;;26.13;;
3627;SDS011;1830;49.000;12.074;2023-05-02T06:17:19;36.17;;;27.77;;
3627;SDS011;1830;49.000;12.074;2023-05-02T06:19:46;37.37;;;27.57;;
3627;SDS011;1830;49.000;12.074;2023-05-02T06:22:13;38.63;;;27.10;;
3627;SDS011;1830;49.000;12.074;2023-05-02T06:24:39;35.30;;;27.37;;
3627;SDS011;1830;49.000;12.074;2023-05-02T06:27:06;30.27;;;24.40;;
3627;SDS011;1830;49.000;12.074;2023-05-02T06:29:33;31.43;;;24.47;;
3627;SDS011;1830;49.000;12.074;2023-05-02T06:32:01;31.50;;;24.73;;
3627;SDS011;1830;49.000;12.074;2023-05-02T06:34:30;34.13;;;26.03;;
3627;SDS011;1830;49.000;12.074;2023-05-02T06:36:57;36.40;;;24.20;;
3627;SDS011;1830;49.000;12.074;2023-05-02T06:39:24;29.30;;;23.97;;
3627;SDS011;1830;49.000;12.074;2023-05-02T06:41:51;29.53;;;24.67;;
3627;SDS011;1830;49.000;12.074;2023-05-02T06:44:23;33.30;;;25.00;;
3627;SDS011;1830;49.000;12.074;2023-05-02T06:46:49;33.93;;;24.17;;
3627;SDS011;1830;49.000;12.074;2023-05-02T06:49:17;28.73;;;22.87;;
3627;SDS011;1830;49.000;12.074;2023-05-02T06:51:44;27.20;;;21.50;;
3627;SDS011;1830;49.000;12.074;2023-05-02T06:54:11;26.40;;;21.20;;
3627;SDS011;1830;49.000;12.074;2023-05-02T06:56:38;26.73;;;21.27;;
3627;SDS011;1830;49.000;12.074;2023-05-02T06:59:05;22.53;;;20.17;;
3627;SDS011;1830;49.000;12.074;2023-05-02T07:01:32;30.50;;;24.23;;
3627;SDS011;1830;49.000;12.074;2023-05-02T07:03:59;24.57;;;20.90;;
3627;SDS011;1830;49.000;12.074;2023-05-02T07:06:29;22.80;;;19.23;;
3627;SDS011;1830;49.000;12.074;2023-05-02T07:08:56;27.60;;;20.17;;
3627;SDS011;1830;49.000;12.074;2023-05-02T07:11:23;23.50;;;19.50;;
3627;SDS011;1830;49.000;12.074;2023-05-02T07:13:50;25.40;;;21.90;;
3627;SDS011;1830;49.000;12.074;2023-05-02T07:16:17;21.00;;;18.50;;
3627;SDS011;1830;49.000;12.074;2023-05-02T07:18:44;20.53;;;17.00;;
3627;SDS011;1830;49.000;12.074;2023-05-02T07:21:11;27.40;;;19.23;;
3627;SDS011;1830;49.000;12.074;2023-05-02T07:23:39;21.20;;;17.43;;
3627;SDS011;1830;49.000;12.074;2023-05-02T07:26:06;18.70;;;16.73;;
3627;SDS011;1830;49.000;12.074;2023-05-02T07:28:33;18.33;;;16.43;;
3627;SDS011;1830;49.000;12.074;2023-05-02T07:30:59;18.27;;;16.10;;
3627;SDS011;1830;49.000;12.074;2023-05-02T07:33:27;22.70;;;18.23;;
3627;SDS011;1830;49.000;12.074;2023-05-02T07:35:54;26.17;;;18.80;;
3627;SDS011;1830;49.000;12.074;2023-05-02T07:38:21;18.80;;;16.57;;
3627;SDS011;1830;49.000;12.074;2023-05-02T07:40:49;17.70;;;15.80;;
3627;SDS011;1830;49.000;12.074;2023-05-02T07:43:16;26.37;;;16.40;;
3627;SDS011;1830;49.000;12.074;2023-05-02T07:45:43;19.70;;;16.90;;
3627;SDS011;1830;49.000;12.074;2023-05-02T07:48:09;18.50;;;15.63;;
3627;SDS011;1830;49.000;12.074;2023-05-02T07:50:36;16.73;;;14.93;;
3627;SDS011;1830;49.000;12.074;2023-05-02T07:53:03;18.67;;;16.00;;
3627;SDS011;1830;49.000;12.074;2023-05-02T07:55:30;19.73;;;16.90;;
3627;SDS011;1830;49.000;12.074;2023-05-02T07:57:58;18.80;;;16.40;;
3627;SDS011;1830;49.000;12.074;2023-05-02T08:00:25;22.13;;;15.67;;
3627;SDS011;1830;49.000;12.074;2023-05-02T08:02:52;17.23;;;15.43;;
3627;SDS011;1830;49.000;12.074;2023-05-02T08:05:19;19.40;;;16.23;;
3627;SDS011;1830;49.000;12.074;2023-05-02T08:07:46;20.87;;;17.53;;
3627;SDS011;1830;49.000;12.074;2023-05-02T08:10:12;18.87;;;15.30;;
3627;SDS011;1830;49.000;12.074;2023-05-02T08:12:39;17.10;;;15.30;;
3627;SDS011;1830;49.000;12.074;2023-05-02T08:15:09;17.27;;;14.50;;
3627;SDS011;1830;49.000;12.074;2023-05-02T08:17:37;15.67;;;14.07;;
3627;SDS011;1830;49.000;12.074;2023-05-02T08:20:04;25.40;;;16.20;;
3627;SDS011;1830;49.000;12.074;2023-05-02T08:22:32;22.57;;;16.67;;
3627;SDS011;1830;49.000;12.074;2023-05-02T08:24:59;18.47;;;13.97;;
3627;SDS011;1830;49.000;12.074;2023-05-02T08:27:25;17.53;;;15.03;;
3627;SDS011;1830;49.000;12.074;2023-05-02T08:29:52;15.47;;;13.87;;
3627;SDS011;1830;49.000;12.074;2023-05-02T08:32:20;22.70;;;14.50;;
3627;SDS011;1830;49.000;12.074;2023-05-02T08:34:47;22.73;;;15.80;;
3627;SDS011;1830;49.000;12.074;2023-05-02T08:37:14;17.23;;;15.30;;
3627;SDS011;1830;49.000;12.074;2023-05-02T08:39:42;23.90;;;16.83;;
3627;SDS011;1830;49.000;12.074;2023-05-02T08:42:09;14.20;;;12.70;;
3627;SDS011;1830;49.000;12.074;2023-05-02T08:44:37;14.73;;;13.17;;
3627;SDS011;1830;49.000;12.074;2023-05-02T08:47:03;16.20;;;13.67;;
3627;SDS011;1830;49.000;12.074;2023-05-02T08:49:32;14.90;;;13.40;;
3627;SDS011;1830;49.000;12.074;2023-05-02T08:52:01;16.83;;;13.53;;
3627;SDS011;1830;49.000;12.074;2023-05-02T08:54:30;13.60;;;12.30;;
3627;SDS011;1830;49.000;12.074;2023-05-02T08:56:58;14.97;;;13.53;;
3627;SDS011;1830;49.000;12.074;2023-05-02T08:59:26;17.30;;;13.67;;
3627;SDS011;1830;49.000;12.074;2023-05-02T09:01:54;17.40;;;14.10;;
3627;SDS011;1830;49.000;12.074;2023-05-02T09:04:24;14.57;;;13.00;;
3627;SDS011;1830;49.000;12.074;2023-05-02T09:06:58;19.60;;;14.90;;
3627;SDS011;1830;49.000;12.074;2023-05-02T09:09:25;19.67;;;17.20;;
3627;SDS011;1830;49.000;12.074;2023-05-02T09:11:53;19.77;;;14.57;;
3627;SDS011;1830;49.000;12.074;2023-05-02T09:14:19;14.77;;;13.23;;
3627;SDS011;1830;49.000;12.074;2023-05-02T09:16:46;21.47;;;17.40;;
3627;SDS011;1830;49.000;12.074;2023-05-02T09:19:22;17.33;;;12.73;;
3627;SDS011;1830;49.000;12.074;2023-05-02T09:21:50;19.80;;;15.50;;
3627;SDS011;1830;49.000;12.074;2023-05-02T09:24:18;26.07;;;18.37;;
3627;SDS011;1830;49.000;12.074;2023-05-02T09:26:55;20.30;;;16.40;;
3627;SDS011;1830;49.000;12.074;2023-05-02T09:29:23;18.80;;;16.40;;
3627;SDS011;1830;49.000;12.074;2023-05-02T09:31:50;21.53;;;15.90;;
3627;SDS011;1830;49.000;12.074;2023-05-02T09:34:17;16.27;;;14.07;;
3627;SDS011;1830;49.000;12.074;2023-05-02T09:36:45;21.57;;;16.53;;
3627;SDS011;1830;49.000;12.074;2023-05-02T09:39:16;17.33;;;13.50;;
3627;SDS011;1830;49.000;12.074;2023-05-02T09:41:45;20.53;;;15.50;;
3627;SDS011;1830;49.000;12.074;2023-05-02T09:44:13;18.60;;;16.47;;
3627;SDS011;1830;49.000;12.074;2023-05-02T09:46:42;17.50;;;15.10;;
3627;SDS011;1830;49.000;12.074;2023-05-02T09:49:10;18.00;;;16.10;;
3627;SDS011;1830;49.000;12.074;2023-05-02T09:51:39;23.33;;;15.53;;
3627;SDS011;1830;49.000;12.074;2023-05-02T09:54:07;19.83;;;16.10;;
3627;SDS011;1830;49.000;12.074;2023-05-02T09:59:21;19.33;;;16.80;;
3627;SDS011;1830;49.000;12.074;2023-05-02T10:01:55;21.50;;;18.47;;
3627;SDS011;1830;49.000;12.074;2023-05-02T10:04:22;16.63;;;14.93;;
3627;SDS011;1830;49.000;12.074;2023-05-02T10:06:50;15.80;;;14.20;;
3627;SDS011;1830;49.000;12.074;2023-05-02T10:09:18;14.37;;;13.03;;
3627;SDS011;1830;49.000;12.074;2023-05-02T10:11:45;30.00;;;22.33;;
3627;SDS011;1830;49.000;12.074;2023-05-02T10:14:17;15.27;;;13.50;;
3627;SDS011;1830;49.000;12.074;2023-05-02T10:16:49;14.83;;;13.17;;
3627;SDS011;1830;49.000;12.074;2023-05-02T10:19:22;15.20;;;13.80;;
3627;SDS011;1830;49.000;12.074;2023-05-02T10:21:52;14.03;;;12.53;;
3627;SDS011;1830;49.000;12.074;2023-05-02T10:24:21;16.00;;;14.30;;
3627;SDS011;1830;49.000;12.074;2023-05-02T10:26:49;15.47;;;12.57;;
3627;SDS011;1830;49.000;12.074;2023-05-02T10:29:18;17.10;;;15.30;;
3627;SDS011;1830;49.000;12.074;2023-05-02T10:31:45;19.10;;;17.10;;
3627;SDS011;1830;49.000;12.074;2023-05-02T10:34:14;21.57;;;16.13;;
3627;SDS011;1830;49.000;12.074;2023-05-02T10:36:43;18.00;;;16.10;;
3627;SDS011;1830;49.000;12.074;2023-05-02T10:39:11;21.90;;;15.43;;
3627;SDS011;1830;49.000;12.074;2023-05-02T10:41:38;20.93;;;17.63;;
3627;SDS011;1830;49.000;12.074;2023-05-02T10:44:06;21.30;;;16.77;;
3627;SDS011;1830;49.000;12.074;2023-05-02T10:46:35;17.70;;;15.27;;
3627;SDS011;1830;49.000;12.074;2023-05-02T10:49:04;20.43;;;16.03;;
3627;SDS011;1830;49.000;12.074;2023-05-02T10:51:32;21.70;;;16.27;;
3627;SDS011;1830;49.000;12.074;2023-05-02T10:54:19;17.27;;;15.13;;
3627;SDS011;1830;49.000;12.074;2023-05-02T10:57:06;16.33;;;14.60;;
3627;SDS011;1830;49.000;12.074;2023-05-02T10:59:34;17.13;;;15.33;;
3627;SDS011;1830;49.000;12.074;2023-05-02T11:02:04;16.03;;;14.40;;
3627;SDS011;1830;49.000;12.074;2023-05-02T11:04:57;14.33;;;12.83;;
3627;SDS011;1830;49.000;12.074;2023-05-02T11:07:27;15.47;;;13.97;;
3627;SDS011;1830;49.000;12.074;2023-05-02T11:12:52;15.57;;;12.90;;
3627;SDS011;1830;49.000;12.074;2023-05-02T11:18:23;16.90;;;14.93;;
3627;SDS011;1830;49.000;12.074;2023-05-02T11:20:50;13.83;;;12.47;;
3627;SDS011;1830;49.000;12.074;2023-05-02T11:23:20;14.37;;;12.87;;
3627;SDS011;1830;49.000;12.074;2023-05-02T11:25:58;14.13;;;12.07;;
3627;SDS011;1830;49.000;12.074;2023-05-02T11:28:47;14.93;;;13.20;;
3627;SDS011;1830;49.000;12.074;2023-05-02T11:34:27;12.63;;;11.40;;
3627;SDS011;1830;49.000;12.074;2023-05-02T11:37:09;15.60;;;12.27;;
3627;SDS011;1830;49.000;12.074;2023-05-02T11:39:37;18.07;;;12.60;;
3627;SDS011;1830;49.000;12.074;2023-05-02T11:42:03;14.47;;;12.50;;
3627;SDS011;1830;49.000;12.074;2023-05-02T11:44:30;15.33;;;12.80;;
3627;SDS011;1830;49.000;12.074;2023-05-02T11:46:57;13.60;;;11.57;;
3627;SDS011;1830;49.000;12.074;2023-05-02T11:49:24;12.53;;;9.83;;
3627;SDS011;1830;49.000;12.074;2023-05-02T11:51:52;13.10;;;10.30;;
3627;SDS011;1830;49.000;12.074;2023-05-02T11:54:19;10.40;;;9.40;;
3627;SDS011;1830;49.000;12.074;2023-05-02T11:56:46;10.70;;;9.13;;
3627;SDS011;1830;49.000;12.074;2023-05-02T11:59:13;11.60;;;10.30;;
3627;SDS011;1830;49.000;12.074;2023-05-02T12:01:46;18.23;;;9.60;;
3627;SDS011;1830;49.000;12.074;2023-05-02T12:04:13;11.83;;;10.73;;
3627;SDS011;1830;49.000;12.074;2023-05-02T12:06:54;12.13;;;9.80;;
3627;SDS011;1830;49.000;12.074;2023-05-02T12:09:21;19.03;;;10.37;;
3627;SDS011;1830;49.000;12.074;2023-05-02T12:11:50;12.00;;;9.90;;
3627;SDS011;1830;49.000;12.074;2023-05-02T12:14:24;9.60;;;8.80;;
3627;SDS011;1830;49.000;12.074;2023-05-02T12:16:52;11.33;;;8.20;;
3627;SDS011;1830;49.000;12.074;2023-05-02T12:19:19;11.50;;;8.30;;
3627;SDS011;1830;49.000;12.074;2023-05-02T12:21:46;9.60;;;8.13;;
3627;SDS011;1830;49.000;12.074;2023-05-02T12:24:14;11.83;;;8.23;;
3627;SDS011;1830;49.000;12.074;2023-05-02T12:26:42;18.67;;;9.43;;
3627;SDS011;1830;49.000;12.074;2023-05-02T12:29:08;11.60;;;9.53;;
3627;SDS011;1830;49.000;12.074;2023-05-02T12:31:36;10.90;;;9.10;;
3627;SDS011;1830;49.000;12.074;2023-05-02T12:34:03;10.43;;;7.80;;
3627;SDS011;1830;49.000;12.074;2023-05-02T12:36:30;9.30;;;8.50;;
3627;SDS011;1830;49.000;12.074;2023-05-02T12:38:58;12.90;;;9.83;;
3627;SDS011;1830;49.000;12.074;2023-05-02T12:41:31;14.07;;;12.37;;
3627;SDS011;1830;49.000;12.074;2023-05-02T12:43:59;9.70;;;8.80;;
3627;SDS011;1830;49.000;12.074;2023-05-02T12:46:25;9.37;;;8.20;;
3627;SDS011;1830;49.000;12.074;2023-05-02T12:49:00;35.60;;;29.20;;
3627;SDS011;1830;49.000;12.074;2023-05-02T12:51:27;8.67;;;7.53;;
3627;SDS011;1830;49.000;12.074;2023-05-02T12:53:55;10.07;;;8.40;;
3627;SDS011;1830;49.000;12.074;2023-05-02T12:56:22;9.27;;;8.23;;
3627;SDS011;1830;49.000;12.074;2023-05-02T12:58:55;9.17;;;8.37;;
3627;SDS011;1830;49.000;12.074;2023-05-02T13:01:24;10.03;;;8.20;;
3627;SDS011;1830;49.000;12.074;2023-05-02T13:03:52;9.00;;;8.20;;
3627;SDS011;1830;49.000;12.074;2023-05-02T13:06:18;10.47;;;8.53;;
3627;SDS011;1830;49.000;12.074;2023-05-02T13:08:45;14.20;;;7.70;;
3627;SDS011;1830;49.000;12.074;2023-05-02T13:11:12;15.10;;;9.47;;
3627;SDS011;1830;49.000;12.074;2023-05-02T13:13:39;10.53;;;9.50;;
3627;SDS011;1830;49.000;12.074;2023-05-02T13:16:08;9.97;;;9.07;;
3627;SDS011;1830;49.000;12.074;2023-05-02T13:18:34;9.40;;;8.43;;
3627;SDS011;1830;49.000;12.074;2023-05-02T13:21:01;9.53;;;8.53;;
3627;SDS011;1830;49.000;12.074;2023-05-02T13:23:29;12.23;;;10.53;;
3627;SDS011;1830;49.000;12.074;2023-05-02T13:25:55;14.23;;;9.27;;
3627;SDS011;1830;49.000;12.074;2023-05-02T13:28:23;10.40;;;9.47;;
3627;SDS011;1830;49.000;12.074;2023-05-02T13:30:50;10.30;;;8.87;;
3627;SDS011;1830;49.000;12.074;2023-05-02T13:33:19;12.60;;;9.40;;
3627;SDS011;1830;49.000;12.074;2023-05-02T13:35:45;10.40;;;8.37;;
3627;SDS011;1830;49.000;12.074;2023-05-02T13:38:12;8.37;;;7.57;;
3627;SDS011;1830;49.000;12.074;2023-05-02T13:40:39;9.17;;;8.27;;
3627;SDS011;1830;49.000;12.074;2023-05-02T13:43:05;10.47;;;8.10;;
3627;SDS011;1830;49.000;12.074;2023-05-02T13:45:32;7.47;;;6.73;;
3627;SDS011;1830;49.000;12.074;2023-05-02T13:47:59;6.80;;;6.20;;
3627;SDS011;1830;49.000;12.074;2023-05-02T13:50:27;8.43;;;5.77;;
3627;SDS011;1830;49.000;12.074;2023-05-02T13:52:54;6.67;;;6.00;;
3627;SDS011;1830;49.000;12.074;2023-05-02T13:55:21;6.43;;;5.83;;
3627;SDS011;1830;49.000;12.074;2023-05-02T13:57:48;8.10;;;5.93;;
3627;SDS011;1830;49.000;12.074;2023-05-02T14:00:15;10.10;;;6.50;;
3627;SDS011;1830;49.000;12.074;2023-05-02T14:02:43;5.73;;;5.23;;
3627;SDS011;1830;49.000;12.074;2023-05-02T14:05:12;8.40;;;6.70;;
3627;SDS011;1830;49.000;12.074;2023-05-02T14:07:40;5.90;;;4.93;;
3627;SDS011;1830;49.000;12.074;2023-05-02T14:10:07;6.00;;;5.40;;
3627;SDS011;1830;49.000;12.074;2023-05-02T14:12:35;5.90;;;5.37;;
3627;SDS011;1830;49.000;12.074;2023-05-02T14:15:01;6.37;;;5.77;;
3627;SDS011;1830;49.000;12.074;2023-05-02T14:17:29;5.47;;;5.00;;
3627;SDS011;1830;49.000;12.074;2023-05-02T14:19:56;5.97;;;5.47;;
3627;SDS011;1830;49.000;12.074;2023-05-02T14:22:23;6.63;;;5.43;;
3627;SDS011;1830;49.000;12.074;2023-05-02T14:24:51;4.80;;;4.40;;
3627;SDS011;1830;49.000;12.074;2023-05-02T14:27:18;6.20;;;5.47;;
3627;SDS011;1830;49.000;12.074;2023-05-02T14:29:45;6.63;;;6.00;;
3627;SDS011;1830;49.000;12.074;2023-05-02T14:32:11;5.73;;;5.20;;
3627;SDS011;1830;49.000;12.074;2023-05-02T14:34:39;6.57;;;5.97;;
3627;SDS011;1830;49.000;12.074;2023-05-02T14:37:06;8.90;;;6.00;;
3627;SDS011;1830;49.000;12.074;2023-05-02T14:39:34;12.63;;;5.10;;
3627;SDS011;1830;49.000;12.074;2023-05-02T14:42:05;6.47;;;4.73;;
3627;SDS011;1830;49.000;12.074;2023-05-02T14:44:32;5.60;;;4.70;;
3627;SDS011;1830;49.000;12.074;2023-05-02T14:46:59;5.07;;;4.27;;
3627;SDS011;1830;49.000;12.074;2023-05-02T14:49:26;5.07;;;4.30;;
3627;SDS011;1830;49.000;12.074;2023-05-02T14:51:53;4.17;;;3.87;;
3627;SDS011;1830;49.000;12.074;2023-05-02T14:54:24;5.07;;;4.57;;
3627;SDS011;1830;49.000;12.074;2023-05-02T14:56:52;4.53;;;4.13;;